Time;durP1;ratioP1;P1;durP2;ratioP2;P2;SDS_P1;SDS_P2;PMS_P1;PMS_P2;Temp;Humidity;BMP_temperature;BMP_pressure;BME280_temperature;BME280_humidity;BME280_pressure;Samples;Min_cycle;Max_cycle;Signal;HPM_P1;HPM_P2
2023/01/30 00:00:59;;;;;;;44.00;21.70;;;;;;;3.75;100.00;101777.25;5032139;28;20087;-73
2023/01/30 00:03:25;;;;;;;46.75;20.13;;;;;;;3.78;100.00;101772.66;5030706;28;20091;-73
2023/01/30 00:05:50;;;;;;;45.95;21.70;;;;;;;3.83;100.00;101751.88;5029982;28;20555;-71
2023/01/30 00:08:16;;;;;;;49.05;22.05;;;;;;;3.88;100.00;101742.78;5031598;28;20072;-71
2023/01/30 00:10:42;;;;;;;49.35;23.55;;;;;;;3.95;100.00;101744.34;5030422;28;20076;-71
2023/01/30 00:13:08;;;;;;;49.20;22.35;;;;;;;3.99;100.00;101748.72;5030197;28;20124;-73
2023/01/30 00:15:33;;;;;;;44.92;21.70;;;;;;;4.00;100.00;101751.34;5037636;28;20021;-72
2023/01/30 00:17:59;;;;;;;46.72;21.85;;;;;;;4.01;100.00;101731.59;5050967;28;20441;-72
2023/01/30 00:20:24;;;;;;;49.30;22.55;;;;;;;4.03;100.00;101727.03;5036436;28;20590;-72
2023/01/30 00:22:49;;;;;;;46.60;22.90;;;;;;;4.05;100.00;101746.72;5030060;28;20025;-73
2023/01/30 00:25:15;;;;;;;44.15;20.77;;;;;;;4.08;100.00;101743.94;5047613;28;20481;-73
2023/01/30 00:27:40;;;;;;;44.47;21.50;;;;;;;4.08;100.00;101741.25;5048668;28;20412;-73
2023/01/30 00:30:08;;;;;;;47.75;21.58;;;;;;;4.09;100.00;101747.50;5028690;28;20484;-72
2023/01/30 00:32:33;;;;;;;41.42;20.77;;;;;;;4.10;100.00;101735.78;5028914;28;20041;-76
2023/01/30 00:34:59;;;;;;;46.13;21.27;;;;;;;4.13;100.00;101735.72;5028487;28;20094;-72
2023/01/30 00:37:24;;;;;;;45.17;21.33;;;;;;;4.14;100.00;101725.81;5028299;28;20033;-71
2023/01/30 00:39:49;;;;;;;51.42;24.77;;;;;;;4.16;100.00;101724.84;5029830;28;20508;-74
2023/01/30 00:47:43;;;;;;;49.20;22.33;;;;;;;4.19;100.00;101716.66;5029087;28;20511;-71
2023/01/30 00:50:09;;;;;;;41.92;21.40;;;;;;;4.21;100.00;101722.88;5027792;28;20053;-72
2023/01/30 00:52:34;;;;;;;42.10;20.67;;;;;;;4.24;100.00;101730.88;5029291;28;20029;-72
2023/01/30 00:55:00;;;;;;;50.28;22.08;;;;;;;4.23;100.00;101726.41;5029605;28;20045;-73
2023/01/30 00:57:25;;;;;;;44.35;22.25;;;;;;;4.28;100.00;101718.19;5027915;28;20037;-72
2023/01/30 00:59:50;;;;;;;42.72;20.77;;;;;;;4.29;100.00;101712.75;5027995;28;20029;-71
2023/01/30 01:02:16;;;;;;;44.47;22.80;;;;;;;4.34;100.00;101718.00;5030418;28;20060;-72
2023/01/30 01:04:44;;;;;;;50.63;24.63;;;;;;;4.35;100.00;101709.84;5029159;28;20497;-73
2023/01/30 01:07:11;;;;;;;44.92;21.20;;;;;;;4.40;100.00;101706.13;5029123;28;20045;-71
2023/01/30 01:09:36;;;;;;;45.83;22.55;;;;;;;4.41;100.00;101708.75;5029073;28;20041;-74
2023/01/30 01:12:03;;;;;;;48.40;24.02;;;;;;;4.44;100.00;101708.69;5028388;28;20029;-72
2023/01/30 01:14:29;;;;;;;45.22;21.88;;;;;;;4.46;100.00;101696.03;5028922;28;20030;-70
2023/01/30 01:16:55;;;;;;;51.28;22.52;;;;;;;4.47;100.00;101687.00;5029510;28;20029;-71
2023/01/30 01:19:21;;;;;;;40.13;21.23;;;;;;;4.51;100.00;101695.88;5029127;28;20033;-72
2023/01/30 01:21:46;;;;;;;44.13;22.05;;;;;;;4.52;100.00;101693.16;5029681;28;20438;-71
2023/01/30 01:24:13;;;;;;;41.55;21.67;;;;;;;4.55;100.00;101693.03;5032635;28;20036;-72
2023/01/30 01:26:40;;;;;;;43.00;21.55;;;;;;;4.56;100.00;101684.00;5048239;28;20045;-73
2023/01/30 01:29:06;;;;;;;46.60;22.67;;;;;;;4.57;100.00;101675.00;5040650;28;20031;-72
2023/01/30 01:31:31;;;;;;;44.22;20.38;;;;;;;4.59;100.00;101683.03;5027332;28;20051;-73
2023/01/30 01:33:57;;;;;;;45.13;22.38;;;;;;;4.60;100.00;101679.38;5028181;28;20037;-70
2023/01/30 01:36:24;;;;;;;42.38;21.67;;;;;;;4.61;100.00;101675.75;5026918;28;20030;-72
2023/01/30 01:38:49;;;;;;;38.08;19.35;;;;;;;4.63;100.00;101678.41;5029749;28;20487;-71
2023/01/30 01:41:16;;;;;;;41.67;21.17;;;;;;;4.67;100.00;101680.97;5028306;28;20409;-71
2023/01/30 01:44:05;;;;;;;46.95;21.15;;;;;;;4.70;100.00;101680.81;5028878;28;20434;-72
2023/01/30 01:46:36;;;;;;;45.42;21.23;;;;;;;4.70;100.00;101667.34;5042074;28;20033;-72
2023/01/30 01:49:15;;;;;;;42.03;21.67;;;;;;;4.73;100.00;101653.78;5029095;28;20378;-72
2023/01/30 01:52:02;;;;;;;43.63;21.15;;;;;;;4.74;100.00;101643.88;5028358;28;20067;-72
2023/01/30 01:54:51;;;;;;;41.15;21.20;;;;;;;4.73;100.00;101634.91;5028719;28;20485;-71
2023/01/30 01:57:26;;;;;;;38.15;20.08;;;;;;;4.75;100.00;101635.72;5028816;28;20048;-72
2023/01/30 02:00:10;;;;;;;42.33;21.35;;;;;;;4.79;100.00;101634.69;5028152;28;20037;-73
2023/01/30 02:02:42;;;;;;;44.15;22.33;;;;;;;4.80;100.00;101630.16;5044584;28;20048;-72
2023/01/30 02:05:11;;;;;;;43.35;20.65;;;;;;;4.80;100.00;101633.78;5026630;28;20041;-72
2023/01/30 02:07:44;;;;;;;43.03;22.35;;;;;;;4.82;100.00;101639.97;5026428;28;20040;-72
2023/01/30 02:10:19;;;;;;;39.95;21.33;;;;;;;4.83;100.00;101636.34;5028126;28;20404;-72
2023/01/30 02:12:45;;;;;;;43.22;20.67;;;;;;;4.86;100.00;101628.16;5027787;28;20566;-72
2023/01/30 02:15:11;;;;;;;41.17;22.08;;;;;;;4.85;100.00;101622.81;5026902;28;20056;-72
2023/01/30 02:17:38;;;;;;;39.78;21.05;;;;;;;4.89;100.00;101629.84;5027954;28;20065;-73
2023/01/30 02:20:26;;;;;;;45.60;21.83;;;;;;;4.91;100.00;101613.63;5026766;28;20096;-73
2023/01/30 02:23:13;;;;;;;39.97;20.70;;;;;;;4.93;100.00;101601.84;5027693;28;20033;-75
2023/01/30 02:26:30;;;;;;;46.35;21.20;;;;;;;4.96;100.00;101600.84;5027911;28;20061;-72
2023/01/30 02:29:20;;;;;;;42.75;20.25;;;;;;;4.96;100.00;101587.38;5025878;28;20496;-72
2023/01/30 02:31:55;;;;;;;43.55;20.60;;;;;;;4.99;100.00;101598.94;5029191;28;20037;-71
2023/01/30 02:34:58;;;;;;;38.30;20.40;;;;;;;5.00;100.00;101589.91;5027583;28;20461;-73
2023/01/30 02:37:44;;;;;;;40.53;19.73;;;;;;;5.02;100.00;101593.41;5026416;28;20092;-73
2023/01/30 02:40:17;;;;;;;37.33;19.73;;;;;;;5.04;100.00;101598.75;5026682;28;20039;-72
2023/01/30 02:43:18;;;;;;;42.80;19.27;;;;;;;5.05;100.00;101601.38;5009758;28;20060;-72
2023/01/30 02:45:56;;;;;;;36.72;20.90;;;;;;;5.07;100.00;101601.31;5027202;28;20497;-73
2023/01/30 02:48:37;;;;;;;44.80;19.83;;;;;;;5.06;100.00;101592.34;5043347;28;20029;-72
2023/01/30 02:51:08;;;;;;;39.50;19.92;;;;;;;5.08;100.00;101582.41;5026662;28;20053;-73
2023/01/30 02:53:35;;;;;;;40.47;21.20;;;;;;;5.10;100.00;101579.63;5026500;28;20133;-71
2023/01/30 02:56:02;;;;;;;42.65;19.73;;;;;;;5.12;100.00;101588.53;5026259;28;20470;-72
2023/01/30 02:58:33;;;;;;;39.10;19.75;;;;;;;5.12;100.00;101577.75;5026620;28;20025;-72
2023/01/30 03:01:30;;;;;;;40.88;20.55;;;;;;;5.12;100.00;101580.44;5026191;28;20092;-72
2023/01/30 03:04:26;;;;;;;39.42;20.33;;;;;;;5.15;100.00;101576.78;5022557;28;20029;-72
2023/01/30 03:07:17;;;;;;;37.20;19.02;;;;;;;5.15;100.00;101579.47;5029505;28;20515;-72
2023/01/30 03:10:06;;;;;;;40.83;21.33;;;;;;;5.16;100.00;101573.13;5045666;28;20507;-72
2023/01/30 03:12:54;;;;;;;45.17;22.45;;;;;;;5.16;100.00;101565.91;5033635;28;20400;-73
2023/01/30 03:15:29;;;;;;;48.47;21.45;;;;;;;5.16;100.00;101568.59;5026887;28;20041;-72
2023/01/30 03:17:55;;;;;;;41.03;20.67;;;;;;;5.16;100.00;101568.59;5026222;28;20044;-73
2023/01/30 03:20:20;;;;;;;44.15;21.42;;;;;;;5.12;100.00;101561.56;5026015;28;20072;-73
2023/01/30 03:22:47;;;;;;;44.42;20.38;;;;;;;5.11;100.00;101571.47;5027388;28;20473;-75
2023/01/30 03:25:25;;;;;;;40.08;19.70;;;;;;;5.13;100.00;101563.34;5026177;28;20029;-75
2023/01/30 03:27:53;;;;;;;45.53;22.33;;;;;;;5.12;100.00;101564.25;5026110;28;20029;-74
2023/01/30 03:30:19;;;;;;;46.47;22.55;;;;;;;5.10;100.00;101553.56;5025777;28;20108;-76
2023/01/30 03:32:45;;;;;;;43.25;21.38;;;;;;;5.11;100.00;101558.00;5026547;28;20041;-75
2023/01/30 03:35:12;;;;;;;48.33;21.08;;;;;;;5.11;100.00;101565.22;5025445;28;20535;-75
2023/01/30 03:37:38;;;;;;;43.72;21.40;;;;;;;5.09;100.00;101551.78;5026925;28;20120;-74
2023/01/30 03:40:04;;;;;;;46.15;22.02;;;;;;;5.09;100.00;101548.22;5026004;28;20072;-74
2023/01/30 03:42:30;;;;;;;49.38;21.25;;;;;;;5.09;100.00;101545.53;5009725;28;20041;-74
2023/01/30 03:44:55;;;;;;;45.05;22.05;;;;;;;5.08;100.00;101539.25;5010931;28;20044;-74
2023/01/30 03:47:21;;;;;;;42.65;20.38;;;;;;;5.10;100.00;101550.84;5043051;28;20043;-74
2023/01/30 03:49:48;;;;;;;38.30;19.67;;;;;;;5.07;100.00;101540.16;5025525;28;20125;-76
2023/01/30 03:52:14;;;;;;;39.60;20.23;;;;;;;5.09;100.00;101543.72;5029826;28;20433;-75
2023/01/30 03:54:39;;;;;;;39.05;19.90;;;;;;;5.10;100.00;101533.78;5046964;28;20038;-74
2023/01/30 03:57:05;;;;;;;47.00;20.83;;;;;;;5.11;100.00;101533.72;5045676;28;20388;-75
2023/01/30 03:59:30;;;;;;;37.20;18.52;;;;;;;5.14;100.00;101542.66;5030256;28;20443;-74
2023/01/30 04:02:03;;;;;;;42.42;19.45;;;;;;;5.14;100.00;101538.13;5010172;28;20489;-76
2023/01/30 04:04:28;;;;;;;40.85;20.73;;;;;;;5.15;100.00;101547.09;5025130;28;20124;-74
2023/01/30 04:06:55;;;;;;;33.90;18.08;;;;;;;5.18;100.00;101549.69;5025172;28;20029;-74
2023/01/30 04:09:20;;;;;;;33.38;18.05;;;;;;;5.16;100.00;101559.63;5026648;28;20040;-74
2023/01/30 04:11:49;;;;;;;34.88;18.30;;;;;;;5.18;100.00;101539.78;5025712;28;20132;-75
2023/01/30 04:14:16;;;;;;;34.78;18.13;;;;;;;5.21;100.00;101549.56;5029648;28;20037;-74
2023/01/30 04:17:02;;;;;;;36.97;18.35;;;;;;;5.24;100.00;101554.84;5045017;28;20048;-74
2023/01/30 04:19:46;;;;;;;30.60;16.15;;;;;;;5.26;100.00;101548.44;5033826;28;20039;-74
2023/01/30 04:22:12;;;;;;;35.25;17.88;;;;;;;5.28;100.00;101548.38;5012376;28;20120;-74
2023/01/30 04:24:37;;;;;;;26.23;15.35;;;;;;;5.31;100.00;101546.41;5030364;28;20124;-75
2023/01/30 04:27:03;;;;;;;28.50;15.45;;;;;;;5.31;100.00;101535.63;5028922;28;20061;-73
2023/01/30 04:29:31;;;;;;;24.15;14.20;;;;;;;5.36;100.00;101540.84;5028713;28;20029;-73
2023/01/30 04:31:59;;;;;;;26.95;14.73;;;;;;;5.38;100.00;101529.06;5028772;28;20033;-73
2023/01/30 04:34:28;;;;;;;31.25;14.60;;;;;;;5.42;100.00;101523.56;5028329;28;20064;-74
2023/01/30 04:36:53;;;;;;;27.63;14.07;;;;;;;5.43;100.00;101528.00;5028474;28;20064;-73
2023/01/30 04:39:19;;;;;;;27.13;14.25;;;;;;;5.47;100.00;101525.13;5028688;28;20037;-74
2023/01/30 04:41:44;;;;;;;30.35;13.25;;;;;;;5.47;100.00;101532.34;5030245;28;20048;-73
2023/01/30 04:44:10;;;;;;;23.02;13.38;;;;;;;5.50;100.00;101533.09;5038674;28;20155;-73
2023/01/30 04:46:55;;;;;;;25.55;12.27;;;;;;;5.55;100.00;101535.63;5026386;28;20049;-72
2023/01/30 04:49:21;;;;;;;22.13;11.70;;;;;;;5.54;100.00;101531.13;5027906;28;20045;-73
2023/01/30 04:51:47;;;;;;;20.50;12.13;;;;;;;5.58;100.00;101527.38;5028765;28;20053;-73
2023/01/30 04:54:13;;;;;;;20.00;10.18;;;;;;;5.60;100.00;101536.31;5028416;28;20069;-73
2023/01/30 04:56:40;;;;;;;20.95;10.50;;;;;;;5.63;100.00;101537.03;5028381;28;20784;-72
2023/01/30 04:59:05;;;;;;;26.10;11.10;;;;;;;5.65;100.00;101538.81;5027962;28;20026;-73
2023/01/30 05:01:37;;;;;;;30.30;10.75;;;;;;;5.67;100.00;101529.69;5028472;28;20021;-72
2023/01/30 05:04:04;;;;;;;22.90;11.40;;;;;;;5.69;100.00;101538.63;5027894;28;20493;-72
2023/01/30 05:06:31;;;;;;;22.27;10.65;;;;;;;5.71;100.00;101541.25;5027836;28;20484;-73
2023/01/30 05:08:57;;;;;;;23.27;10.65;;;;;;;5.72;100.00;101545.72;5029355;28;20132;-73
2023/01/30 05:11:24;;;;;;;21.38;9.77;;;;;;;5.76;100.00;101545.53;5029542;28;20033;-74
2023/01/30 05:13:50;;;;;;;21.73;9.77;;;;;;;5.78;100.00;101548.16;5027577;28;20079;-74
2023/01/30 05:16:17;;;;;;;23.10;10.10;;;;;;;5.81;100.00;101548.03;5028651;28;20041;-74
2023/01/30 05:18:42;;;;;;;19.25;9.02;;;;;;;5.85;100.00;101544.28;5028941;28;20025;-75
2023/01/30 05:21:13;;;;;;;15.60;7.90;;;;;;;5.88;100.00;101553.13;5028539;28;20124;-74
2023/01/30 05:23:39;;;;;;;21.67;8.35;;;;;;;5.89;100.00;101541.38;5029282;28;20534;-73
2023/01/30 05:26:05;;;;;;;17.67;7.55;;;;;;;5.90;100.00;101544.94;5027720;28;20029;-73
2023/01/30 05:28:31;;;;;;;16.50;8.73;;;;;;;5.88;100.00;101542.31;5029040;28;20034;-72
2023/01/30 05:31:05;;;;;;;19.00;8.60;;;;;;;5.92;100.00;101539.50;5028523;28;20037;-74
2023/01/30 05:33:30;;;;;;;16.45;7.00;;;;;;;5.91;100.00;101535.91;5029168;28;20056;-73
2023/01/30 05:35:56;;;;;;;22.13;7.78;;;;;;;5.93;100.00;101536.75;5027851;28;20021;-73
2023/01/30 05:38:22;;;;;;;15.15;6.00;;;;;;;5.95;100.00;101539.38;5029097;28;20416;-73
2023/01/30 05:40:58;;;;;;;14.38;6.60;;;;;;;5.96;100.00;101541.16;5027776;28;20111;-73
2023/01/30 05:43:23;;;;;;;17.17;6.55;;;;;;;5.96;100.00;101533.03;5028509;28;20044;-74
2023/01/30 05:45:53;;;;;;;14.10;5.70;;;;;;;5.99;100.00;101532.91;5030006;28;20037;-75
2023/01/30 05:48:19;;;;;;;16.90;5.97;;;;;;;5.99;100.00;101530.22;5028117;28;20158;-74
2023/01/30 05:50:44;;;;;;;17.65;5.68;;;;;;;6.01;100.00;101529.19;5028350;28;20049;-73
2023/01/30 05:53:10;;;;;;;15.68;6.07;;;;;;;6.00;100.00;101523.88;5028752;28;20045;-75
2023/01/30 05:55:35;;;;;;;14.60;5.18;;;;;;;6.02;100.00;101536.38;5027727;28;20381;-73
2023/01/30 05:58:00;;;;;;;8.75;4.88;;;;;;;6.02;100.00;101528.28;5028352;28;20557;-74
2023/01/30 06:00:26;;;;;;;16.08;4.93;;;;;;;6.04;100.00;101539.00;5032302;28;20524;-73
2023/01/30 06:02:51;;;;;;;16.13;5.38;;;;;;;6.06;100.00;101547.91;5048749;28;20384;-73
2023/01/30 06:05:16;;;;;;;13.68;5.15;;;;;;;6.06;100.00;101547.91;5036848;28;20103;-73
2023/01/30 06:07:42;;;;;;;16.17;4.47;;;;;;;6.09;100.00;101555.88;5027987;28;20045;-73
2023/01/30 06:10:08;;;;;;;12.55;4.93;;;;;;;6.08;100.00;101552.31;5028585;28;20052;-74
2023/01/30 06:12:33;;;;;;;11.00;4.75;;;;;;;6.09;100.00;101548.66;5040722;28;20104;-72
2023/01/30 06:14:58;;;;;;;15.38;4.68;;;;;;;6.09;100.00;101551.38;5029828;28;20521;-73
2023/01/30 06:17:24;;;;;;;14.50;4.40;;;;;;;6.10;100.00;101558.50;5028163;28;20500;-74
2023/01/30 06:19:50;;;;;;;13.18;4.35;;;;;;;6.11;100.00;101565.69;5027883;28;20120;-73
2023/01/30 06:22:15;;;;;;;12.43;4.60;;;;;;;6.10;100.00;101579.25;5028401;28;20479;-72
2023/01/30 06:24:40;;;;;;;11.40;4.43;;;;;;;6.08;100.00;101573.06;5027975;28;20480;-73
2023/01/30 06:27:06;;;;;;;14.48;5.22;;;;;;;6.11;100.00;101572.94;5026846;28;20079;-74
2023/01/30 06:29:31;;;;;;;17.40;4.45;;;;;;;6.09;100.00;101580.19;5027724;28;20037;-73
2023/01/30 06:31:56;;;;;;;10.05;3.22;;;;;;;6.06;100.00;101599.22;5027776;28;20116;-73
2023/01/30 06:34:22;;;;;;;8.25;3.58;;;;;;;6.00;100.00;101596.78;5027454;28;20069;-74
2023/01/30 06:36:47;;;;;;;13.38;4.50;;;;;;;5.94;100.00;101597.06;5026569;28;20075;-73
2023/01/30 06:39:12;;;;;;;11.85;3.20;;;;;;;5.87;100.00;101605.38;5027928;28;20032;-75
2023/01/30 06:41:38;;;;;;;13.68;3.15;;;;;;;5.81;100.00;101607.44;5026898;28;20438;-74
2023/01/30 06:44:03;;;;;;;9.88;3.85;;;;;;;5.73;100.00;101593.34;5027360;28;20040;-73
2023/01/30 06:46:28;;;;;;;12.57;3.47;;;;;;;5.63;100.00;101599.13;5038422;28;20052;-74
2023/01/30 06:48:54;;;;;;;22.35;3.85;;;;;;;5.57;100.00;101612.00;5027331;28;20044;-74
2023/01/30 06:51:19;;;;;;;12.52;3.72;;;;;;;5.53;100.00;101616.63;5027228;28;20044;-74
2023/01/30 06:53:44;;;;;;;12.82;3.20;;;;;;;5.46;100.00;101611.56;5028676;28;20061;-73
2023/01/30 06:56:10;;;;;;;19.92;4.03;;;;;;;5.41;100.00;101609.03;5026110;28;20034;-74
2023/01/30 06:58:35;;;;;;;9.25;3.53;;;;;;;5.37;100.00;101605.56;5027998;28;20030;-73
2023/01/30 07:01:01;;;;;;;21.40;3.80;;;;;;;5.31;100.00;101583.31;5027456;28;20040;-73
2023/01/30 07:03:26;;;;;;;10.45;2.78;;;;;;;5.24;100.00;101579.13;5027412;28;20516;-73
2023/01/30 07:05:52;;;;;;;8.50;2.53;;;;;;;5.18;100.00;101582.94;5026881;28;20743;-73
2023/01/30 07:08:18;;;;;;;12.30;2.40;;;;;;;5.19;99.83;101586.50;5027001;28;20068;-73
2023/01/30 07:10:44;;;;;;;10.90;2.63;;;;;;;5.15;99.56;101584.88;5042325;28;20041;-74
2023/01/30 07:13:10;;;;;;;8.50;2.33;;;;;;;5.12;99.36;101586.72;5042705;28;20041;-73
2023/01/30 07:15:35;;;;;;;11.65;2.33;;;;;;;5.08;99.70;101600.38;5025928;28;20061;-73
2023/01/30 07:18:00;;;;;;;14.15;3.42;;;;;;;5.02;99.12;101614.09;5026252;28;20128;-74
2023/01/30 07:20:26;;;;;;;13.68;3.47;;;;;;;5.00;99.58;101616.88;5027139;28;20435;-74
2023/01/30 07:22:53;;;;;;;8.30;3.28;;;;;;;4.96;99.16;101612.50;5025657;28;20036;-73
2023/01/30 07:25:20;;;;;;;12.65;3.90;;;;;;;4.94;98.94;101618.88;5027786;28;20078;-74
2023/01/30 07:27:54;;;;;;;12.43;3.10;;;;;;;4.89;98.55;101624.44;5028053;28;20087;-72
2023/01/30 07:30:19;;;;;;;14.15;2.05;;;;;;;4.89;98.72;101626.25;5027468;28;20044;-73
2023/01/30 07:32:50;;;;;;;17.27;2.90;;;;;;;4.86;98.78;101621.88;5027629;28;20022;-73
2023/01/30 07:35:15;;;;;;;10.55;2.65;;;;;;;4.83;99.03;101616.59;5027473;28;20038;-73
2023/01/30 07:37:44;;;;;;;13.13;2.63;;;;;;;4.80;98.85;101625.69;5026821;28;20037;-73
2023/01/30 07:40:10;;;;;;;23.38;3.97;;;;;;;4.77;99.06;101633.88;5009723;28;20369;-72
2023/01/30 07:42:35;;;;;;;19.63;3.58;;;;;;;4.78;98.48;101634.75;5027467;28;20485;-73
2023/01/30 07:45:01;;;;;;;20.35;4.05;;;;;;;4.78;98.95;101634.75;5028090;28;20041;-74
2023/01/30 07:47:26;;;;;;;16.83;3.20;;;;;;;4.78;98.44;101627.53;5045718;28;20558;-73
2023/01/30 07:49:51;;;;;;;18.98;2.28;;;;;;;4.77;99.04;101633.88;5043980;28;20443;-73
2023/01/30 07:52:17;;;;;;;17.20;2.65;;;;;;;4.76;98.77;101636.63;5027309;28;20389;-73
2023/01/30 07:54:42;;;;;;;9.80;2.03;;;;;;;4.73;98.20;101626.81;5026803;28;20116;-73
2023/01/30 07:57:07;;;;;;;15.00;2.78;;;;;;;4.73;98.49;101640.31;5029742;28;20591;-73
2023/01/30 07:59:33;;;;;;;15.18;2.35;;;;;;;4.73;97.95;101636.72;5030951;28;20025;-74
2023/01/30 08:01:58;;;;;;;19.60;2.83;;;;;;;4.75;97.40;101648.31;5030766;28;20420;-73
2023/01/30 08:04:23;;;;;;;17.35;2.75;;;;;;;4.75;97.79;101643.81;5029228;28;20088;-74
2023/01/30 08:06:49;;;;;;;11.05;2.70;;;;;;;4.72;97.93;101643.94;5030353;28;20033;-75
2023/01/30 08:09:14;;;;;;;16.90;3.58;;;;;;;4.71;97.18;101650.28;5029892;28;20108;-74
2023/01/30 08:11:39;;;;;;;12.30;2.13;;;;;;;4.71;96.91;101652.06;5029536;28;20080;-74
2023/01/30 08:14:05;;;;;;;13.70;3.15;;;;;;;4.71;96.35;101658.34;5039104;28;20098;-73
2023/01/30 08:16:31;;;;;;;25.27;2.92;;;;;;;4.73;96.10;101664.56;5035745;28;20025;-74
2023/01/30 08:18:57;;;;;;;10.52;2.40;;;;;;;4.72;95.53;101637.66;5030138;28;20041;-74
2023/01/30 08:21:23;;;;;;;20.90;2.65;;;;;;;4.73;95.56;101656.47;5030204;28;20113;-73
2023/01/30 08:23:49;;;;;;;12.98;2.58;;;;;;;4.74;94.36;101654.66;5029879;28;20560;-73
2023/01/30 08:26:15;;;;;;;15.82;2.97;;;;;;;4.78;93.87;101672.47;5042814;28;20043;-76
2023/01/30 08:28:40;;;;;;;18.38;3.55;;;;;;;4.82;93.16;101680.41;5043590;28;20049;-72
2023/01/30 08:31:10;;;;;;;19.55;2.92;;;;;;;4.84;92.37;101674.94;5028726;28;20045;-73
2023/01/30 08:33:36;;;;;;;18.30;4.18;;;;;;;4.82;92.77;101666.94;5030320;28;20037;-72
2023/01/30 08:36:01;;;;;;;20.35;3.38;;;;;;;4.83;91.98;101667.81;5029496;28;20096;-74
2023/01/30 08:38:27;;;;;;;15.95;3.22;;;;;;;4.92;92.04;101677.38;5029075;28;20041;-74
2023/01/30 08:40:52;;;;;;;19.25;3.45;;;;;;;4.95;90.60;101682.69;5030136;28;20497;-74
2023/01/30 08:43:17;;;;;;;11.93;2.60;;;;;;;5.00;91.35;101681.56;5029440;28;20507;-74
2023/01/30 08:45:43;;;;;;;11.40;3.03;;;;;;;5.00;91.64;101684.28;5035445;28;20040;-74
2023/01/30 08:48:09;;;;;;;18.00;2.95;;;;;;;5.04;91.34;101677.84;5034844;28;20408;-74
2023/01/30 08:50:35;;;;;;;18.27;2.83;;;;;;;5.09;90.98;101689.34;5027954;28;20053;-74
2023/01/30 08:53:07;;;;;;;14.45;2.97;;;;;;;5.14;90.66;101682.91;5028837;28;20052;-73
2023/01/30 08:55:33;;;;;;;22.17;3.47;;;;;;;5.10;91.49;101674.91;5029467;28;20083;-74
2023/01/30 08:57:59;;;;;;;21.92;2.92;;;;;;;5.16;90.70;101683.72;5028225;28;20041;-74
2023/01/30 09:00:26;;;;;;;14.95;3.22;;;;;;;5.16;91.34;101684.59;5029974;28;20224;-74
2023/01/30 09:02:56;;;;;;;22.20;3.28;;;;;;;5.21;90.84;101697.91;5028403;28;20468;-73
2023/01/30 09:05:22;;;;;;;18.15;3.47;;;;;;;5.27;90.20;101717.47;5027705;28;20041;-73
2023/01/30 09:07:48;;;;;;;13.02;3.75;;;;;;;5.30;90.03;101705.66;5029054;28;20033;-75
2023/01/30 09:10:14;;;;;;;12.20;2.55;;;;;;;5.33;89.94;101719.94;5030060;28;20488;-74
2023/01/30 09:12:40;;;;;;;16.45;3.20;;;;;;;5.40;90.25;101706.19;5045100;28;20123;-73
2023/01/30 09:15:06;;;;;;;17.70;2.75;;;;;;;5.43;89.87;101706.97;5031214;28;20413;-73
2023/01/30 09:17:31;;;;;;;18.13;3.33;;;;;;;5.44;89.66;101721.34;5028224;28;20047;-73
2023/01/30 09:19:56;;;;;;;15.07;2.42;;;;;;;5.51;89.07;101722.91;5027882;28;20556;-73
2023/01/30 09:22:22;;;;;;;11.77;2.70;;;;;;;5.55;88.71;101721.84;5029005;28;20570;-73
2023/01/30 09:24:47;;;;;;;13.25;2.72;;;;;;;5.60;88.70;101738.75;5029883;28;20038;-72
2023/01/30 09:27:12;;;;;;;12.38;2.30;;;;;;;5.63;89.38;101727.81;5029641;28;20033;-73
2023/01/30 09:29:38;;;;;;;11.88;2.85;;;;;;;5.68;88.81;101731.22;5029079;28;20507;-73
2023/01/30 09:32:03;;;;;;;12.80;2.85;;;;;;;5.73;88.16;101748.13;5041638;28;20029;-74
2023/01/30 09:34:28;;;;;;;22.42;3.58;;;;;;;5.79;88.23;101736.22;5028956;28;20492;-73
2023/01/30 09:36:56;;;;;;;8.82;2.50;;;;;;;5.83;88.36;101743.28;5027670;28;20044;-72
2023/01/30 09:39:21;;;;;;;17.42;3.65;;;;;;;5.86;86.57;101746.72;5028959;28;20449;-74
2023/01/30 09:42:04;;;;;;;15.27;2.33;;;;;;;5.94;87.34;101753.69;5029648;28;20036;-72
2023/01/30 09:44:58;;;;;;;13.23;2.47;;;;;;;6.03;87.77;101753.34;5038868;28;20064;-74
2023/01/30 09:47:59;;;;;;;7.45;2.25;;;;;;;6.10;86.97;101734.09;5028895;28;20052;-73
2023/01/30 09:50:50;;;;;;;16.33;2.40;;;;;;;6.21;85.60;101752.63;5033244;28;20061;-73
2023/01/30 09:53:30;;;;;;;13.90;2.35;;;;;;;6.26;84.81;101744.31;5049466;28;20077;-72
2023/01/30 09:55:57;;;;;;;17.73;3.05;;;;;;;6.25;84.40;101748.84;5048553;28;20029;-75
2023/01/30 09:58:26;;;;;;;16.50;2.03;;;;;;;6.38;85.10;101762.72;5039039;28;20041;-73
2023/01/30 10:00:55;;;;;;;19.42;3.35;;;;;;;6.45;84.60;101764.25;5028453;28;20311;-73
2023/01/30 10:03:34;;;;;;;20.20;2.78;;;;;;;6.60;85.53;101766.31;5028758;28;20041;-73
2023/01/30 10:06:05;;;;;;;14.45;3.63;;;;;;;6.69;86.44;101759.66;5010181;28;20515;-73
2023/01/30 10:09:01;;;;;;;13.48;3.42;;;;;;;6.81;84.53;101769.09;5027395;28;20044;-73
2023/01/30 10:11:46;;;;;;;21.17;2.80;;;;;;;6.87;84.82;101769.72;5028176;28;20041;-73
2023/01/30 10:14:39;;;;;;;17.60;2.88;;;;;;;6.93;82.99;101773.09;5027297;28;20041;-73
2023/01/30 10:17:30;;;;;;;13.95;2.85;;;;;;;6.95;84.12;101772.09;5028174;28;20111;-74
2023/01/30 10:20:12;;;;;;;23.60;3.33;;;;;;;6.92;82.21;101776.75;5010554;28;20066;-73
2023/01/30 10:22:53;;;;;;;17.67;3.57;;;;;;;6.92;82.84;101783.03;5026861;28;20029;-72
2023/01/30 10:25:45;;;;;;;19.02;3.08;;;;;;;6.93;83.36;101776.69;5028375;28;20117;-73
2023/01/30 10:28:21;;;;;;;15.10;2.88;;;;;;;6.92;82.41;101782.16;5027987;28;20091;-73
2023/01/30 10:30:50;;;;;;;13.18;2.30;;;;;;;6.90;82.80;101777.69;5028896;28;20033;-72
2023/01/30 10:33:24;;;;;;;10.82;2.17;;;;;;;6.94;82.17;101793.78;5028931;28;20083;-72
2023/01/30 10:36:04;;;;;;;12.27;2.35;;;;;;;6.94;82.50;101788.38;5026195;28;20036;-74
2023/01/30 10:38:43;;;;;;;8.45;2.20;;;;;;;6.94;83.26;101778.44;5026994;28;20056;-72
2023/01/30 10:41:20;;;;;;;18.80;2.47;;;;;;;6.94;81.08;101791.97;5028231;28;20430;-73
2023/01/30 10:43:57;;;;;;;15.88;2.30;;;;;;;6.93;80.82;101809.13;5028466;28;20567;-73
2023/01/30 10:46:28;;;;;;;9.27;3.30;;;;;;;6.89;80.52;101797.56;5027667;28;20453;-74
2023/01/30 10:48:57;;;;;;;16.02;2.83;;;;;;;6.94;80.72;101819.00;5026838;28;20045;-74
2023/01/30 10:51:31;;;;;;;13.63;1.80;;;;;;;6.88;79.87;101816.56;5027458;28;20055;-75
2023/01/30 10:54:04;;;;;;;20.15;4.70;;;;;;;6.82;80.72;101808.72;5027670;28;20052;-74
2023/01/30 10:56:37;;;;;;;15.38;2.45;;;;;;;6.83;79.23;101811.34;5027970;28;20096;-73
2023/01/30 10:59:41;;;;;;;15.25;2.40;;;;;;;6.81;80.36;101799.72;5027607;28;20482;-74
2023/01/30 11:02:44;;;;;;;17.25;2.35;;;;;;;6.81;80.02;101805.13;5026345;28;20128;-74
2023/01/30 11:05:14;;;;;;;13.63;2.80;;;;;;;6.79;79.12;101809.72;5027021;28;20424;-74
2023/01/30 11:07:42;;;;;;;10.52;2.38;;;;;;;6.77;78.21;101816.13;5025966;28;20461;-73
2023/01/30 11:10:20;;;;;;;13.60;2.83;;;;;;;6.78;78.84;101823.31;5026645;28;20052;-73
2023/01/30 11:12:45;;;;;;;22.17;4.13;;;;;;;6.76;78.79;101823.38;5027232;28;20459;-73
2023/01/30 11:15:11;;;;;;;13.48;3.40;;;;;;;6.78;79.09;101816.06;5009934;28;20033;-73
2023/01/30 11:17:40;;;;;;;12.15;2.45;;;;;;;6.80;79.28;101805.19;5027535;28;20120;-73
2023/01/30 11:20:17;;;;;;;8.98;2.13;;;;;;;6.86;78.18;101808.53;5027208;28;20034;-73
2023/01/30 11:22:59;;;;;;;16.75;2.67;;;;;;;6.90;80.26;101812.88;5034563;28;20552;-74
2023/01/30 11:25:24;;;;;;;17.48;2.67;;;;;;;7.00;79.10;101810.66;5046030;28;20348;-74
2023/01/30 11:28:02;;;;;;;17.58;4.13;;;;;;;7.05;79.07;101800.53;5046038;28;20037;-74
2023/01/30 11:30:34;;;;;;;16.63;2.95;;;;;;;7.12;78.07;101799.28;5042205;28;20034;-72
2023/01/30 11:33:12;;;;;;;;;;;;;;;7.15;78.56;101807.28;5031992;28;20037;-73
2023/01/30 11:35:50;;;;;;;16.13;3.10;;;;;;;7.18;78.08;101799.97;5030194;28;19963;-73